Time,TemperatureF,DewpointF,PressureIn,WindDirection,WindDirectionDegrees,WindSpeedMPH,WindSpeedGustMPH,Humidity,HourlyPrecipIn,Conditions,Clouds,dailyrainin,SoftwareType,DateUTC
2013-03-10 00:01:00,35.0,32.0,29.81,North,11,0.0,2.0,89,0.00,,,0.05,,2013-03-10 06:01:00,
2013-03-10 00:11:00,34.0,31.0,29.81,SSW,204,0.0,2.0,89,0.01,,,0.06,,2013-03-10 06:11:00,
2013-03-10 00:22:00,34.0,31.0,29.81,SSW,204,0.0,2.0,89,0.01,,,0.06,,2013-03-10 06:22:00,
2013-03-10 00:32:00,34.0,31.0,29.80,NW,314,0.0,2.0,90,0.02,,,0.07,,2013-03-10 06:32:00,
2013-03-10 00:42:00,34.0,31.0,29.80,WNW,293,0.0,1.0,90,0.02,,,0.07,,2013-03-10 06:42:00,
2013-03-10 00:52:00,34.0,31.0,29.80,WNW,293,0.0,1.0,90,0.02,,,0.07,,2013-03-10 06:52:00,
2013-03-10 01:01:00,35.0,33.0,29.80,SSW,198,0.0,2.0,91,0.04,,,0.09,,2013-03-10 07:01:00,
2013-03-10 01:11:00,34.0,32.0,29.81,SW,225,0.0,1.0,92,0.02,,,0.09,,2013-03-10 07:11:00,
2013-03-10 01:21:00,34.0,32.0,29.81,SW,225,0.0,1.0,92,0.02,,,0.09,,2013-03-10 07:21:00,
2013-03-10 01:31:00,35.0,33.0,29.80,East,90,0.0,1.0,92,0.01,,,0.09,,2013-03-10 07:31:00,
2013-03-10 01:42:00,35.0,33.0,29.80,East,90,0.0,1.0,92,0.01,,,0.09,,2013-03-10 07:42:00,
2013-03-10 01:52:00,35.0,33.0,29.80,East,90,0.0,1.0,92,0.01,,,0.09,,2013-03-10 07:52:00,
2013-03-10 03:01:00,35.0,33.0,29.80,SW,216,0.0,2.0,93,0.00,,,0.09,,2013-03-10 08:01:00,
2013-03-10 03:11:00,35.0,33.0,29.80,South,182,1.0,2.0,94,0.01,,,0.10,,2013-03-10 08:11:00,
2013-03-10 03:21:00,35.0,33.0,29.80,South,182,1.0,2.0,94,0.01,,,0.10,,2013-03-10 08:21:00,
2013-03-10 03:31:00,35.0,33.0,29.78,SW,225,0.0,2.0,94,0.00,,,0.10,,2013-03-10 08:31:00,
2013-03-10 03:42:00,35.0,33.0,29.78,SW,225,0.0,2.0,94,0.00,,,0.10,,2013-03-10 08:42:00,
2013-03-10 03:51:00,35.0,33.0,29.78,SW,225,0.0,2.0,94,0.00,,,0.10,,2013-03-10 08:51:00,
2013-03-10 04:01:00,35.0,33.0,29.78,SW,225,0.0,2.0,94,0.00,,,0.10,,2013-03-10 09:01:00,
2013-03-10 04:11:00,35.0,33.0,29.77,North,7,0.0,2.0,94,0.01,,,0.11,,2013-03-10 09:11:00,
2013-03-10 04:21:00,35.0,33.0,29.77,North,7,0.0,2.0,94,0.01,,,0.11,,2013-03-10 09:21:00,
2013-03-10 04:31:00,35.0,33.0,29.75,NNW,330,2.0,3.0,94,0.05,,,0.15,,2013-03-10 09:31:00,
2013-03-10 04:41:00,35.0,33.0,29.75,NNW,330,2.0,3.0,94,0.05,,,0.15,,2013-03-10 09:41:00,
2013-03-10 04:51:00,35.0,34.0,29.74,NNW,336,0.0,2.0,95,0.07,,,0.17,,2013-03-10 09:51:00,
2013-03-10 05:01:00,35.0,33.0,29.76,WSW,239,0.0,2.0,94,0.08,,,0.18,,2013-03-10 10:01:00,
2013-03-10 05:11:00,35.0,33.0,29.76,WSW,239,0.0,2.0,94,0.08,,,0.18,,2013-03-10 10:11:00,
2013-03-10 05:21:00,35.0,34.0,29.76,WNW,293,0.0,2.0,95,0.08,,,0.19,,2013-03-10 10:21:00,
2013-03-10 05:32:00,35.0,34.0,29.76,WNW,293,0.0,2.0,95,0.08,,,0.19,,2013-03-10 10:32:00,
2013-03-10 05:41:00,35.0,34.0,29.76,WNW,286,0.0,2.0,95,0.02,,,0.19,,2013-03-10 10:41:00,
2013-03-10 05:51:00,35.0,34.0,29.76,WNW,286,0.0,2.0,95,0.02,,,0.19,,2013-03-10 10:51:00,
2013-03-10 06:01:00,36.0,35.0,29.75,North,355,0.0,2.0,96,0.01,,,0.19,,2013-03-10 11:01:00,
2013-03-10 06:12:00,35.0,34.0,29.75,NW,304,0.0,2.0,95,0.00,,,0.19,,2013-03-10 11:12:00,
2013-03-10 06:21:00,35.0,34.0,29.75,NW,304,0.0,2.0,95,0.00,,,0.19,,2013-03-10 11:21:00,
2013-03-10 06:31:00,35.0,34.0,29.75,NW,314,0.0,1.0,95,0.00,,,0.19,,2013-03-10 11:31:00,
2013-03-10 06:42:00,35.0,34.0,29.75,NW,314,0.0,1.0,95,0.00,,,0.19,,2013-03-10 11:42:00,
2013-03-10 06:52:00,34.0,33.0,29.76,SW,217,0.0,1.0,96,0.00,,,0.19,,2013-03-10 11:52:00,
2013-03-10 07:01:00,34.0,33.0,29.76,SW,217,0.0,1.0,96,0.00,,,0.19,,2013-03-10 12:01:00,
2013-03-10 07:11:00,34.0,33.0,29.76,SW,217,0.0,1.0,96,0.00,,,0.19,,2013-03-10 12:11:00,
2013-03-10 07:21:00,35.0,34.0,29.76,SSE,148,2.0,2.0,96,0.01,,,0.20,,2013-03-10 12:21:00,
2013-03-10 07:31:00,36.0,35.0,29.75,SE,135,2.0,3.0,98,0.01,,,0.20,,2013-03-10 12:31:00,
2013-03-10 07:42:00,36.0,35.0,29.75,SE,135,2.0,3.0,98,0.01,,,0.20,,2013-03-10 12:42:00,
2013-03-10 07:52:00,37.0,36.0,29.75,SE,135,2.0,3.0,98,0.02,,,0.22,,2013-03-10 12:52:00,
2013-03-10 08:01:00,38.0,38.0,29.75,SE,135,2.0,3.0,99,0.04,,,0.23,,2013-03-10 13:01:00,
2013-03-10 08:11:00,38.0,38.0,29.75,SE,135,2.0,3.0,99,0.04,,,0.23,,2013-03-10 13:11:00,
2013-03-10 08:21:00,39.0,39.0,29.74,SE,131,0.0,2.0,99,0.04,,,0.24,,2013-03-10 13:21:00,
2013-03-10 08:31:00,39.0,38.0,29.73,SE,135,0.0,2.0,98,0.04,,,0.24,,2013-03-10 13:31:00,
2013-03-10 08:41:00,39.0,38.0,29.73,SE,135,0.0,2.0,98,0.04,,,0.24,,2013-03-10 13:41:00,
2013-03-10 08:52:00,38.0,36.0,29.75,SE,138,3.0,8.0,93,0.02,,,0.21,,2013-03-10 13:52:00,
2013-03-10 09:01:00,39.0,37.0,29.76,South,174,0.0,6.0,93,0.02,,,0.21,,2013-03-10 14:01:00,
2013-03-10 09:11:00,39.0,37.0,29.76,South,174,0.0,6.0,93,0.02,,,0.21,,2013-03-10 14:11:00,
2013-03-10 09:21:00,40.0,38.0,29.77,SSW,194,1.0,4.0,91,0.01,,,0.21,,2013-03-10 14:21:00,
2013-03-10 09:32:00,40.0,38.0,29.77,SSE,168,1.0,2.0,91,0.01,,,0.21,,2013-03-10 14:32:00,
2013-03-10 09:41:00,40.0,38.0,29.77,SSE,168,1.0,2.0,91,0.01,,,0.21,,2013-03-10 14:41:00,
2013-03-10 09:51:00,40.0,36.0,29.77,SSE,154,2.0,2.0,86,0.02,,,0.22,,2013-03-10 14:51:00,
2013-03-10 10:01:00,40.0,36.0,29.77,SE,141,0.0,2.0,86,0.02,,,0.22,,2013-03-10 15:01:00,
2013-03-10 10:11:00,40.0,36.0,29.77,SE,141,0.0,2.0,86,0.02,,,0.22,,2013-03-10 15:11:00,
2013-03-10 10:21:00,40.0,36.0,29.77,SE,141,0.0,2.0,86,0.02,,,0.22,,2013-03-10 15:21:00,
2013-03-10 10:32:00,39.0,35.0,29.77,WSW,245,0.0,1.0,84,0.01,,,0.22,,2013-03-10 15:32:00,
2013-03-10 10:42:00,39.0,35.0,29.77,WSW,245,0.0,1.0,84,0.01,,,0.22,,2013-03-10 15:42:00,
2013-03-10 10:52:00,40.0,35.0,29.77,NW,309,0.0,1.0,82,0.00,,,0.22,,2013-03-10 15:52:00,
2013-03-10 11:01:00,42.0,36.0,29.78,NW,315,0.0,1.0,80,0.00,,,0.22,,2013-03-10 16:01:00,
2013-03-10 11:12:00,42.0,36.0,29.78,NW,315,0.0,1.0,80,0.00,,,0.22,,2013-03-10 16:12:00,
2013-03-10 11:21:00,43.0,37.0,29.78,North,0,0.0,0.0,79,0.00,,,0.22,,2013-03-10 16:21:00,
2013-03-10 11:31:00,40.0,35.0,29.79,SE,125,1.0,2.0,81,0.00,,,0.22,,2013-03-10 16:31:00,
2013-03-10 11:41:00,40.0,35.0,29.79,SE,125,1.0,2.0,81,0.00,,,0.22,,2013-03-10 16:41:00,
2013-03-10 11:51:00,39.0,34.0,29.78,NNW,341,1.0,2.0,83,0.00,,,0.22,,2013-03-10 16:51:00,
2013-03-10 12:01:00,40.0,36.0,29.79,NE,45,0.0,1.0,84,0.01,,,0.24,,2013-03-10 17:01:00,
2013-03-10 12:11:00,40.0,36.0,29.79,NE,45,0.0,1.0,84,0.01,,,0.24,,2013-03-10 17:11:00,
2013-03-10 12:21:00,40.0,36.0,29.79,NE,45,0.0,1.0,84,0.01,,,0.24,,2013-03-10 17:21:00,
2013-03-10 12:31:00,43.0,38.0,29.76,North,4,0.0,2.0,83,0.01,,,0.22,,2013-03-10 17:31:00,
2013-03-10 12:41:00,43.0,38.0,29.76,North,4,0.0,2.0,83,0.01,,,0.22,,2013-03-10 17:41:00,
2013-03-10 12:51:00,47.0,42.0,29.75,WSW,238,0.0,1.0,82,0.00,,,0.22,,2013-03-10 17:51:00,
2013-03-10 13:01:00,45.0,40.0,29.77,WSW,239,1.0,2.0,81,0.00,,,0.22,,2013-03-10 18:01:00,
2013-03-10 13:11:00,45.0,40.0,29.76,SW,235,0.0,2.0,81,0.00,,,0.22,,2013-03-10 18:11:00,
2013-03-10 13:21:00,45.0,40.0,29.76,SW,235,0.0,2.0,81,0.00,,,0.22,,2013-03-10 18:21:00,
2013-03-10 13:32:00,44.0,37.0,29.75,NW,325,2.0,3.0,77,0.00,,,0.22,,2013-03-10 18:32:00,
2013-03-10 13:41:00,44.0,37.0,29.75,NW,325,2.0,3.0,77,0.00,,,0.22,,2013-03-10 18:41:00,
2013-03-10 13:52:00,45.0,39.0,29.76,North,359,0.0,3.0,79,0.00,,,0.22,,2013-03-10 18:52:00,
2013-03-10 14:01:00,41.0,36.0,29.78,SE,129,0.0,4.0,81,0.02,,,0.25,,2013-03-10 19:01:00,
2013-03-10 14:11:00,41.0,36.0,29.78,SE,129,0.0,4.0,81,0.02,,,0.25,,2013-03-10 19:11:00,
2013-03-10 14:21:00,41.0,36.0,29.78,SE,129,0.0,4.0,81,0.02,,,0.25,,2013-03-10 19:21:00,
2013-03-10 14:32:00,41.0,36.0,29.78,SE,129,0.0,4.0,81,0.02,,,0.25,,2013-03-10 19:32:00,
2013-03-10 14:42:00,41.0,36.0,29.78,SE,129,0.0,4.0,81,0.02,,,0.25,,2013-03-10 19:42:00,
2013-03-10 14:53:00,44.0,38.0,29.74,North,1,0.0,2.0,80,0.11,,,0.33,,2013-03-10 19:53:00,
2013-03-10 15:02:00,44.0,38.0,29.72,North,358,0.0,3.0,80,0.08,,,0.34,,2013-03-10 20:02:00,
2013-03-10 15:12:00,44.0,38.0,29.72,North,358,0.0,3.0,80,0.08,,,0.34,,2013-03-10 20:12:00,
2013-03-10 15:22:00,44.0,38.0,29.72,North,358,0.0,3.0,80,0.08,,,0.34,,2013-03-10 20:22:00,
2013-03-10 15:32:00,42.0,37.0,29.73,ENE,74,2.0,3.0,81,0.06,,,0.35,,2013-03-10 20:32:00,
2013-03-10 15:42:00,42.0,37.0,29.73,ENE,74,2.0,3.0,81,0.06,,,0.35,,2013-03-10 20:42:00,
2013-03-10 15:53:00,41.0,36.0,29.71,NNW,337,1.0,2.0,82,0.04,,,0.37,,2013-03-10 20:53:00,
2013-03-10 16:02:00,41.0,36.0,29.72,NNW,345,2.0,2.0,83,0.02,,,0.37,,2013-03-10 21:02:00,
2013-03-10 16:12:00,41.0,36.0,29.72,NNW,345,2.0,2.0,83,0.02,,,0.37,,2013-03-10 21:12:00,
2013-03-10 16:22:00,41.0,37.0,29.71,North,350,0.0,3.0,84,0.04,,,0.38,,2013-03-10 21:22:00,
2013-03-10 16:32:00,41.0,37.0,29.70,North,358,2.0,4.0,84,0.04,,,0.39,,2013-03-10 21:32:00,
2013-03-10 16:42:00,41.0,37.0,29.70,North,358,2.0,4.0,84,0.04,,,0.39,,2013-03-10 21:42:00,
2013-03-10 16:53:00,40.0,36.0,29.69,North,5,2.0,5.0,84,0.05,,,0.40,,2013-03-10 21:53:00,
2013-03-10 17:02:00,40.0,36.0,29.70,North,11,1.0,8.0,85,0.05,,,0.41,,2013-03-10 22:02:00,
2013-03-10 17:12:00,40.0,36.0,29.70,North,11,1.0,8.0,85,0.05,,,0.41,,2013-03-10 22:12:00,
2013-03-10 17:22:00,39.0,35.0,29.73,NE,52,1.0,5.0,85,0.09,,,0.47,,2013-03-10 22:22:00,
2013-03-10 17:32:00,39.0,35.0,29.72,NE,34,0.0,3.0,86,0.12,,,0.50,,2013-03-10 22:32:00,
2013-03-10 17:43:00,39.0,35.0,29.72,NE,34,0.0,3.0,86,0.12,,,0.50,,2013-03-10 22:43:00,
2013-03-10 17:53:00,39.0,35.0,29.71,NNW,347,0.0,3.0,86,0.12,,,0.51,,2013-03-10 22:53:00,
2013-03-10 18:02:00,39.0,35.0,29.71,NNW,347,0.0,3.0,86,0.12,,,0.51,,2013-03-10 23:02:00,
2013-03-10 18:12:00,37.0,33.0,29.69,NNE,13,2.0,5.0,86,0.12,,,0.58,,2013-03-10 23:12:00,
2013-03-10 18:22:00,37.0,33.0,29.69,NNE,13,2.0,5.0,86,0.12,,,0.58,,2013-03-10 23:22:00,
2013-03-10 18:33:00,37.0,33.0,29.68,NE,41,3.0,9.0,86,0.08,,,0.59,,2013-03-10 23:33:00,
2013-03-10 18:42:00,37.0,33.0,29.68,NE,41,3.0,9.0,86,0.08,,,0.59,,2013-03-10 23:42:00,
2013-03-10 18:52:00,36.0,32.0,29.68,North,2,1.0,4.0,86,0.07,,,0.60,,2013-03-10 23:52:00,
2013-03-10 19:02:00,36.0,32.0,29.68,North,2,1.0,4.0,86,0.07,,,0.60,,2013-03-11 00:02:00,
2013-03-10 19:12:00,36.0,32.0,29.68,North,2,1.0,4.0,86,0.07,,,0.60,,2013-03-11 00:12:00,
2013-03-10 19:22:00,36.0,32.0,29.67,NNE,19,2.0,7.0,84,0.04,,,0.61,,2013-03-11 00:22:00,
2013-03-10 19:33:00,36.0,32.0,29.67,NNE,30,3.0,8.0,84,0.02,,,0.61,,2013-03-11 00:33:00,
2013-03-10 19:43:00,36.0,32.0,29.67,NNE,30,3.0,8.0,84,0.02,,,0.61,,2013-03-11 00:43:00,
2013-03-10 19:53:00,36.0,32.0,29.66,North,5,1.0,8.0,85,0.01,,,0.61,,2013-03-11 00:53:00,
2013-03-10 20:02:00,36.0,32.0,29.65,NNE,12,2.0,9.0,85,0.01,,,0.63,,2013-03-11 01:02:00,
2013-03-10 20:12:00,36.0,32.0,29.65,NNE,12,2.0,9.0,85,0.01,,,0.63,,2013-03-11 01:12:00,
2013-03-10 20:22:00,36.0,32.0,29.65,NNE,12,2.0,9.0,85,0.01,,,0.63,,2013-03-11 01:22:00,
2013-03-10 20:32:00,36.0,32.0,29.63,NNE,17,1.0,4.0,86,0.02,,,0.64,,2013-03-11 01:32:00,
2013-03-10 20:42:00,36.0,32.0,29.63,NNE,17,1.0,4.0,86,0.02,,,0.64,,2013-03-11 01:42:00,
2013-03-10 20:53:00,37.0,33.0,29.63,NNE,26,2.0,5.0,86,0.02,,,0.64,,2013-03-11 01:53:00,
2013-03-10 21:02:00,37.0,33.0,29.62,NNW,343,3.0,7.0,86,0.01,,,0.64,,2013-03-11 02:02:00,
2013-03-10 21:12:00,37.0,33.0,29.62,NNW,343,3.0,7.0,86,0.01,,,0.64,,2013-03-11 02:12:00,
2013-03-10 21:22:00,37.0,33.0,29.62,NE,37,0.0,6.0,86,0.01,,,0.64,,2013-03-11 02:22:00,
2013-03-10 21:32:00,37.0,33.0,29.61,West,263,2.0,4.0,86,0.01,,,0.65,,2013-03-11 02:32:00,
2013-03-10 21:42:00,37.0,33.0,29.61,West,263,2.0,4.0,86,0.01,,,0.65,,2013-03-11 02:42:00,
2013-03-10 21:52:00,38.0,34.0,29.61,North,351,2.0,5.0,86,0.02,,,0.66,,2013-03-11 02:52:00,
2013-03-10 22:02:00,38.0,34.0,29.61,NNW,337,1.0,3.0,86,0.02,,,0.66,,2013-03-11 03:02:00,
2013-03-10 22:12:00,38.0,34.0,29.61,NNW,337,1.0,3.0,86,0.02,,,0.66,,2013-03-11 03:12:00,
2013-03-10 22:22:00,38.0,34.0,29.60,North,2,0.0,3.0,86,0.02,,,0.66,,2013-03-11 03:22:00,
2013-03-10 22:32:00,37.0,33.0,29.60,WNW,301,1.0,2.0,86,0.01,,,0.66,,2013-03-11 03:32:00,
2013-03-10 22:42:00,37.0,33.0,29.60,WNW,301,1.0,2.0,86,0.01,,,0.66,,2013-03-11 03:42:00,
2013-03-10 22:52:00,37.0,34.0,29.60,NW,321,1.0,3.0,87,0.00,,,0.66,,2013-03-11 03:52:00,
2013-03-10 23:02:00,38.0,34.0,29.60,NW,317,2.0,3.0,87,0.00,,,0.66,,2013-03-11 04:02:00,
2013-03-10 23:12:00,38.0,34.0,29.60,NW,317,2.0,3.0,87,0.00,,,0.66,,2013-03-11 04:12:00,
2013-03-10 23:22:00,38.0,34.0,29.61,NW,314,1.0,3.0,87,0.00,,,0.66,,2013-03-11 04:22:00,
2013-03-10 23:32:00,36.0,33.0,29.60,North,359,1.0,2.0,87,0.00,,,0.66,,2013-03-11 04:32:00,
2013-03-10 23:42:00,36.0,33.0,29.60,North,359,1.0,2.0,87,0.00,,,0.66,,2013-03-11 04:42:00,
2013-03-10 23:52:00,37.0,34.0,29.60,NW,322,0.0,3.0,87,0.00,,,0.66,,2013-03-11 04:52:00,